Time;durP1;ratioP1;P1;durP2;ratioP2;P2;SDS_P1;SDS_P2;PMS_P1;PMS_P2;Temp;Humidity;BMP_temperature;BMP_pressure;BME280_temperature;BME280_humidity;BME280_pressure;Samples;Min_cycle;Max_cycle;Signal;HPM_P1;HPM_P2
2022/08/04 00:00:27;;;;;;;5.05;3.60;;;;;;;24.47;78.27;96110.59;5092119;27;20200;-76
2022/08/04 00:03:10;;;;;;;6.25;3.78;;;;;;;24.46;78.34;96103.47;5095974;27;20227;-76
2022/08/04 00:05:53;;;;;;;5.63;3.63;;;;;;;24.48;78.25;96101.19;5092158;27;20203;-78
2022/08/04 00:08:31;;;;;;;6.53;3.67;;;;;;;24.48;77.61;96103.94;5092753;27;20211;-78
2022/08/04 00:11:02;;;;;;;6.10;3.60;;;;;;;24.45;77.53;96102.63;5090046;27;20203;-76
2022/08/04 00:13:32;;;;;;;3.50;3.20;;;;;;;24.51;77.20;96095.00;5108734;27;20253;-77
2022/08/04 00:16:04;;;;;;;4.70;3.70;;;;;;;24.60;76.19;96106.84;5089209;27;20204;-78
2022/08/04 00:18:39;;;;;;;5.45;3.40;;;;;;;24.64;76.08;96104.25;5096118;27;20303;-76
2022/08/04 00:21:07;;;;;;;3.50;3.20;;;;;;;24.71;75.31;96107.34;5101454;27;20294;-77
2022/08/04 00:23:35;;;;;;;4.22;3.83;;;;;;;24.74;74.81;96099.22;5088138;27;20219;-79
2022/08/04 00:26:03;;;;;;;4.13;3.72;;;;;;;24.88;73.66;96108.13;5088814;27;20231;-77
2022/08/04 00:28:31;;;;;;;4.10;3.35;;;;;;;24.92;73.96;96104.75;5109338;27;20219;-77
2022/08/04 00:30:58;;;;;;;4.22;3.83;;;;;;;24.88;74.07;96105.38;5088286;27;20210;-78
2022/08/04 00:33:26;;;;;;;5.90;3.70;;;;;;;24.93;73.54;96098.88;5089446;27;20208;-77
2022/08/04 00:35:55;;;;;;;3.92;3.53;;;;;;;25.03;72.42;96095.78;5091513;27;20204;-77
2022/08/04 00:38:22;;;;;;;6.53;3.33;;;;;;;24.99;73.01;96099.53;5088710;27;20208;-79
2022/08/04 00:41:03;;;;;;;3.67;3.33;;;;;;;24.92;73.74;96107.53;5107967;27;20200;-77
2022/08/04 00:43:33;;;;;;;3.70;3.40;;;;;;;24.85;74.20;96094.97;5091486;27;20220;-77
2022/08/04 00:46:28;;;;;;;3.80;3.50;;;;;;;24.80;74.36;96102.63;5090067;27;20204;-76
2022/08/04 00:49:19;;;;;;;3.70;3.40;;;;;;;24.79;75.15;96104.56;5087856;27;20208;-76
2022/08/04 00:51:49;;;;;;;4.00;3.60;;;;;;;24.76;77.44;96102.44;5087977;27;20210;-78
2022/08/04 00:54:26;;;;;;;3.90;2.97;;;;;;;24.61;80.41;96105.72;5095244;27;20330;-76
2022/08/04 00:57:16;;;;;;;3.63;3.33;;;;;;;24.50;81.99;96109.94;5089901;27;20309;-77
2022/08/04 01:00:03;;;;;;;3.92;3.63;;;;;;;24.29;83.83;96101.50;5114159;27;20199;-77
2022/08/04 01:02:37;;;;;;;6.35;3.67;;;;;;;24.20;84.94;96108.94;5104137;27;20222;-76
2022/08/04 01:05:06;;;;;;;3.83;3.50;;;;;;;24.12;84.70;96110.53;5112703;27;20333;-76
2022/08/04 01:08:08;;;;;;;3.90;3.50;;;;;;;24.13;85.33;96116.88;5092013;27;20219;-76
2022/08/04 01:10:47;;;;;;;6.00;4.30;;;;;;;24.07;84.76;96110.69;5087528;27;20208;-77
2022/08/04 01:13:49;;;;;;;5.95;4.28;;;;;;;24.02;85.90;96118.31;5105768;27;20203;-79
2022/08/04 01:16:18;;;;;;;5.53;3.53;;;;;;;24.00;87.51;96124.13;5059771;27;20211;-79
2022/08/04 01:18:54;;;;;;;9.52;4.63;;;;;;;23.88;87.75;96120.41;5091568;27;20283;-78
2022/08/04 01:21:51;;;;;;;7.38;4.40;;;;;;;23.70;88.60;96117.59;5087460;27;20215;-76
2022/08/04 01:25:01;;;;;;;5.82;4.28;;;;;;;23.63;89.92;96119.19;5093962;27;20294;-80
2022/08/04 01:27:48;;;;;;;5.55;4.40;;;;;;;23.60;90.32;96119.81;5082626;27;20231;-78
2022/08/04 01:30:16;;;;;;;5.32;3.80;;;;;;;23.53;93.31;96114.78;5096286;27;20199;-76
2022/08/04 01:32:52;;;;;;;3.80;3.45;;;;;;;23.38;94.30;96115.97;5088883;27;20211;-79
2022/08/04 01:35:25;;;;;;;4.18;3.42;;;;;;;23.33;94.64;96121.59;5101929;27;20211;-79
2022/08/04 01:38:01;;;;;;;5.80;3.58;;;;;;;23.30;95.20;96116.75;5104872;27;20211;-77
2022/08/04 01:40:28;;;;;;;3.42;3.13;;;;;;;23.26;96.71;96113.00;5104651;27;20212;-77
2022/08/04 01:42:58;;;;;;;5.38;3.40;;;;;;;23.22;95.27;96113.97;5087900;27;20227;-78
2022/08/04 01:45:29;;;;;;;4.55;3.45;;;;;;;23.15;94.22;96114.38;5090339;27;20222;-76
2022/08/04 01:47:57;;;;;;;3.50;3.20;;;;;;;23.20;93.88;96110.69;5087426;27;20239;-76
2022/08/04 01:50:26;;;;;;;4.07;3.40;;;;;;;23.21;91.84;96112.31;5105946;27;20263;-76
2022/08/04 01:52:55;;;;;;;3.65;3.33;;;;;;;23.23;90.54;96118.31;5089697;27;20203;-78
2022/08/04 01:55:23;;;;;;;4.05;3.25;;;;;;;23.21;89.18;96113.16;5087155;27;20204;-76
2022/08/04 01:57:51;;;;;;;4.80;3.65;;;;;;;23.29;87.46;96111.56;5088677;27;20226;-76
2022/08/04 02:00:21;;;;;;;4.85;3.60;;;;;;;23.29;90.72;96115.13;5085476;27;20210;-80
2022/08/04 02:02:50;;;;;;;3.30;3.00;;;;;;;23.30;90.02;96119.50;5085592;27;20242;-77
2022/08/04 02:05:19;;;;;;;5.32;4.82;;;;;;;23.15;91.08;96119.06;5087079;27;20221;-77
2022/08/04 02:08:04;;;;;;;4.75;4.35;;;;;;;23.10;91.29;96124.72;5096092;27;20227;-77
2022/08/04 02:10:47;;;;;;;4.28;3.88;;;;;;;23.05;90.34;96120.19;5105282;27;20210;-78
2022/08/04 02:13:23;;;;;;;3.88;3.40;;;;;;;23.02;91.04;96115.28;5100108;27;20297;-76
2022/08/04 02:15:58;;;;;;;3.65;3.35;;;;;;;22.99;92.62;96113.97;5090995;27;20252;-78
2022/08/04 02:18:32;;;;;;;4.35;3.95;;;;;;;22.96;92.94;96117.38;5086900;27;20303;-78
2022/08/04 02:21:02;;;;;;;4.70;3.90;;;;;;;22.94;93.53;96113.31;5102670;27;20210;-80
2022/08/04 02:23:34;;;;;;;4.97;3.50;;;;;;;22.96;94.53;96113.81;5084920;27;20224;-76
2022/08/04 02:26:04;;;;;;;4.35;3.75;;;;;;;22.92;95.55;96108.09;5087250;27;20235;-77
2022/08/04 02:28:54;;;;;;;4.20;3.70;;;;;;;22.77;98.18;96108.50;5111910;27;20603;-77
2022/08/04 02:31:30;;;;;;;4.45;3.47;;;;;;;22.73;100.00;96112.97;5084195;28;20203;-77
2022/08/04 02:34:06;;;;;;;4.00;3.67;;;;;;;22.69;98.94;96111.97;5121094;27;20204;-80
2022/08/04 02:36:37;;;;;;;6.68;3.60;;;;;;;22.72;98.52;96114.09;5120070;27;20210;-78
2022/08/04 02:39:05;;;;;;;4.72;3.65;;;;;;;22.72;97.61;96116.03;5085964;28;20254;-80
2022/08/04 02:41:34;;;;;;;3.70;3.40;;;;;;;22.70;97.56;96112.78;5103212;27;20196;-77
2022/08/04 02:44:04;;;;;;;4.82;3.80;;;;;;;22.76;99.39;96111.56;5085808;28;20211;-79
2022/08/04 02:46:35;;;;;;;4.18;3.78;;;;;;;22.74;97.47;96103.63;5099784;27;20212;-79
2022/08/04 02:49:05;;;;;;;5.03;4.03;;;;;;;22.77;97.97;96108.50;5086336;28;20188;-78
2022/08/04 02:51:34;;;;;;;4.45;3.80;;;;;;;22.76;97.21;96112.38;5100393;27;20204;-77
2022/08/04 02:54:04;;;;;;;5.72;3.20;;;;;;;22.71;97.92;96109.72;5085811;28;20501;-77
2022/08/04 02:56:34;;;;;;;3.80;3.50;;;;;;;22.74;96.47;96102.75;5083606;28;20250;-78
2022/08/04 02:59:05;;;;;;;4.22;3.53;;;;;;;22.72;96.44;96114.09;5085322;28;20219;-79
2022/08/04 03:01:33;;;;;;;3.97;3.58;;;;;;;22.72;96.17;96105.81;5084268;28;20205;-78
2022/08/04 03:04:20;;;;;;;5.32;4.13;;;;;;;22.72;95.74;96113.28;5086685;28;20210;-77
2022/08/04 03:07:27;;;;;;;4.10;3.70;;;;;;;22.60;96.23;96102.84;5082358;28;20265;-80
2022/08/04 03:10:33;;;;;;;4.07;3.78;;;;;;;22.43;96.54;96103.53;5085754;28;20219;-77
2022/08/04 03:13:38;;;;;;;7.13;3.50;;;;;;;22.44;97.06;96098.84;5106876;27;20231;-77
2022/08/04 03:16:38;;;;;;;4.10;3.53;;;;;;;22.40;96.74;96100.56;5072403;27;20254;-77
2022/08/04 03:19:40;;;;;;;5.25;3.83;;;;;;;22.43;96.12;96103.53;5087310;28;20200;-77
2022/08/04 03:23:13;;;;;;;5.00;3.55;;;;;;;22.48;94.70;96105.34;5085524;28;20203;-80
2022/08/04 03:26:21;;;;;;;4.28;3.80;;;;;;;22.52;94.40;96101.66;5041430;28;20366;-78
2022/08/04 03:29:25;;;;;;;4.15;3.65;;;;;;;22.53;93.34;96103.28;5026691;28;20252;-77
2022/08/04 03:32:27;;;;;;;4.05;3.65;;;;;;;22.58;93.18;96100.41;5082849;28;20315;-77
2022/08/04 03:35:09;;;;;;;4.20;3.60;;;;;;;22.57;92.32;96104.28;5080960;28;20211;-77
2022/08/04 03:38:03;;;;;;;3.95;3.42;;;;;;;22.60;91.16;96114.66;5086249;28;20196;-77
2022/08/04 03:40:59;;;;;;;4.75;4.00;;;;;;;22.59;91.50;96099.28;5072192;28;20215;-79
2022/08/04 03:43:50;;;;;;;4.45;4.00;;;;;;;22.56;92.03;96102.66;5070619;28;20215;-77
2022/08/04 03:47:05;;;;;;;5.18;4.18;;;;;;;22.60;92.06;96100.91;5035688;28;20238;-79
2022/08/04 03:50:12;;;;;;;4.45;3.90;;;;;;;22.64;91.29;96103.84;5072830;28;20215;-77
2022/08/04 03:53:08;;;;;;;5.32;3.70;;;;;;;22.69;90.64;96102.91;5071161;28;20204;-78
2022/08/04 03:55:46;;;;;;;4.68;3.70;;;;;;;22.71;91.92;96114.44;5071874;28;20272;-78
2022/08/04 03:58:39;;;;;;;4.40;3.65;;;;;;;22.69;93.69;96114.72;5072364;28;20228;-80
2022/08/04 04:01:21;;;;;;;3.42;3.13;;;;;;;22.62;94.91;96123.44;5066820;28;20295;-77
2022/08/04 04:04:03;;;;;;;4.65;3.55;;;;;;;22.61;95.63;96119.06;5067916;28;20221;-79
2022/08/04 04:06:58;;;;;;;4.78;4.38;;;;;;;22.68;96.03;96128.81;5068293;28;20223;-77
2022/08/04 04:09:48;;;;;;;5.63;5.05;;;;;;;22.61;95.63;96120.97;5065924;28;20205;-80
2022/08/04 04:12:43;;;;;;;7.63;4.32;;;;;;;22.43;97.06;96120.03;5068792;28;20211;-77
2022/08/04 04:15:27;;;;;;;5.50;4.55;;;;;;;22.30;98.65;96123.63;5067479;28;20230;-80
2022/08/04 04:18:16;;;;;;;5.40;4.35;;;;;;;22.24;100.00;96119.38;5069092;28;20212;-80
2022/08/04 04:21:18;;;;;;;7.03;4.32;;;;;;;22.23;100.00;96120.50;5063331;28;20350;-79
2022/08/04 04:24:33;;;;;;;5.00;4.50;;;;;;;22.25;99.76;96118.25;5071003;28;20266;-79
2022/08/04 04:27:12;;;;;;;7.18;4.60;;;;;;;22.31;99.34;96116.19;5024004;28;20240;-79
2022/08/04 04:30:07;;;;;;;6.47;4.60;;;;;;;22.31;98.00;96111.50;5073143;28;20217;-80
2022/08/04 04:33:03;;;;;;;4.45;4.05;;;;;;;22.22;97.87;96114.19;5066676;28;20299;-79
2022/08/04 04:35:38;;;;;;;5.65;3.80;;;;;;;22.24;98.00;96116.63;5071548;28;20341;-78
2022/08/04 04:38:29;;;;;;;4.18;3.70;;;;;;;22.28;98.46;96123.16;5071494;28;20219;-82
2022/08/04 04:41:15;;;;;;;4.15;3.75;;;;;;;22.30;98.76;96120.88;5073990;28;20211;-79
2022/08/04 04:44:15;;;;;;;6.18;4.00;;;;;;;22.33;99.63;96120.28;5071216;28;20616;-79
2022/08/04 04:46:48;;;;;;;4.82;3.90;;;;;;;22.35;96.70;96120.78;5071092;28;20260;-80
2022/08/04 04:49:25;;;;;;;5.32;3.72;;;;;;;22.46;97.03;96129.59;5069251;28;20324;-79
2022/08/04 04:52:03;;;;;;;8.02;6.57;;;;;;;22.49;97.72;96131.72;5069139;28;20217;-78
2022/08/04 04:54:37;;;;;;;4.55;4.13;;;;;;;22.53;97.67;96130.81;5069545;28;20205;-78
2022/08/04 04:57:11;;;;;;;4.35;3.95;;;;;;;22.51;98.96;96132.22;5069137;28;20235;-79
2022/08/04 04:59:55;;;;;;;4.72;3.70;;;;;;;22.48;98.44;96132.84;5070211;28;20215;-79
2022/08/04 05:02:58;;;;;;;6.15;4.00;;;;;;;22.39;99.03;96138.28;5068367;28;20220;-79
2022/08/04 05:05:33;;;;;;;5.20;4.18;;;;;;;22.35;99.39;96142.78;5070959;28;20480;-79
2022/08/04 05:08:46;;;;;;;5.50;4.32;;;;;;;22.33;100.00;96147.78;5074656;28;20220;-80
2022/08/04 05:11:31;;;;;;;7.25;4.10;;;;;;;22.29;100.00;96141.25;5011674;28;20294;-78
2022/08/04 05:14:01;;;;;;;4.10;3.65;;;;;;;22.28;100.00;96145.16;5072337;28;20219;-78
2022/08/04 05:16:35;;;;;;;3.97;3.53;;;;;;;22.25;100.00;96135.56;5066793;28;20212;-78
2022/08/04 05:19:16;;;;;;;6.95;4.70;;;;;;;22.26;100.00;96139.94;5068911;28;20215;-79
2022/08/04 05:21:48;;;;;;;5.10;3.60;;;;;;;22.29;100.00;96141.25;5070851;28;20275;-80
2022/08/04 05:24:19;;;;;;;4.75;4.35;;;;;;;22.24;100.00;96144.94;5062859;28;20291;-78
2022/08/04 05:26:52;;;;;;;5.68;4.70;;;;;;;22.20;100.00;96146.66;5065511;28;20256;-78
2022/08/04 05:29:27;;;;;;;4.78;4.38;;;;;;;22.10;100.00;96143.34;5072544;28;20235;-80
2022/08/04 05:31:57;;;;;;;4.70;4.03;;;;;;;22.06;100.00;96154.13;5071995;28;20303;-77
2022/08/04 05:34:29;;;;;;;3.90;3.60;;;;;;;22.03;100.00;96159.47;5072098;28;20219;-78
2022/08/04 05:37:00;;;;;;;5.72;5.07;;;;;;;22.04;100.00;96150.06;5068627;28;20209;-77
2022/08/04 05:39:29;;;;;;;6.72;4.43;;;;;;;22.04;100.00;96153.63;5067218;28;20480;-78
2022/08/04 05:41:59;;;;;;;4.15;3.75;;;;;;;21.94;100.00;96147.53;5086149;28;20208;-77
2022/08/04 05:44:28;;;;;;;5.05;3.63;;;;;;;21.99;100.00;96158.44;5071928;28;20205;-77
2022/08/04 05:46:58;;;;;;;4.38;3.70;;;;;;;21.98;100.00;96152.13;5071339;28;20205;-78
2022/08/04 05:49:28;;;;;;;5.35;3.75;;;;;;;22.00;100.00;96157.31;5070349;28;20224;-78
2022/08/04 05:51:59;;;;;;;5.60;4.75;;;;;;;22.06;100.00;96148.66;5070518;28;20204;-80
2022/08/04 05:54:28;;;;;;;5.05;4.55;;;;;;;22.10;100.00;96157.91;5069376;28;20242;-78
2022/08/04 05:56:58;;;;;;;5.82;4.38;;;;;;;22.13;100.00;96145.47;5066100;28;20254;-80
2022/08/04 05:59:26;;;;;;;4.30;3.90;;;;;;;22.13;100.00;96137.22;5072713;28;20212;-79
2022/08/04 06:01:57;;;;;;;4.90;4.40;;;;;;;22.17;100.00;96139.06;5068242;28;20205;-79
2022/08/04 06:04:38;;;;;;;5.55;4.40;;;;;;;22.17;100.00;96143.75;5069608;28;20210;-78
2022/08/04 06:07:06;;;;;;;6.30;4.10;;;;;;;22.22;100.00;96149.13;5070889;28;20213;-81
2022/08/04 06:09:33;;;;;;;4.40;4.03;;;;;;;22.22;100.00;96147.19;5071837;28;20222;-79
2022/08/04 06:12:06;;;;;;;4.60;4.20;;;;;;;22.22;100.00;96146.38;5069516;28;20213;-77
2022/08/04 06:14:38;;;;;;;4.43;4.03;;;;;;;22.24;100.00;96147.69;5070328;28;20306;-79
2022/08/04 06:17:07;;;;;;;4.80;4.30;;;;;;;22.23;100.00;96156.25;5069758;28;20286;-78
2022/08/04 06:19:37;;;;;;;5.70;4.78;;;;;;;22.16;100.00;96148.44;5068616;28;20213;-78
2022/08/04 06:22:06;;;;;;;6.40;4.45;;;;;;;22.12;100.00;96152.09;5064791;28;20208;-80
2022/08/04 06:24:37;;;;;;;6.32;4.40;;;;;;;22.17;100.00;96152.00;5066763;28;20204;-78
2022/08/04 06:27:08;;;;;;;4.90;4.28;;;;;;;22.15;100.00;96151.47;5071799;28;20244;-77
2022/08/04 06:29:39;;;;;;;5.13;4.18;;;;;;;22.12;100.00;96147.41;5074834;28;20243;-77
2022/08/04 06:32:23;;;;;;;6.40;4.47;;;;;;;22.07;100.00;96147.53;5078975;28;20200;-77
2022/08/04 06:34:53;;;;;;;4.55;4.15;;;;;;;22.04;100.00;96144.56;5068630;28;20204;-81
2022/08/04 06:37:22;;;;;;;5.90;4.50;;;;;;;22.03;100.00;96145.72;5070201;28;20205;-78
2022/08/04 06:39:51;;;;;;;5.47;4.50;;;;;;;22.02;100.00;96149.59;5072958;28;20209;-79
2022/08/04 06:42:23;;;;;;;5.20;4.22;;;;;;;22.00;100.00;96144.38;5076310;28;20261;-78
2022/08/04 06:44:56;;;;;;;4.20;3.90;;;;;;;21.97;100.00;96145.00;5072674;28;20193;-80
2022/08/04 06:47:24;;;;;;;6.68;4.28;;;;;;;21.90;100.00;96155.56;5078265;28;20209;-78
2022/08/04 06:49:55;;;;;;;4.40;3.95;;;;;;;21.90;100.00;96145.38;5076421;28;20218;-79
2022/08/04 06:52:22;;;;;;;4.85;4.45;;;;;;;21.91;100.00;96143.44;5077988;28;20205;-78
2022/08/04 06:54:51;;;;;;;5.03;4.53;;;;;;;21.92;100.00;96153.31;5074386;28;20196;-79
2022/08/04 06:57:23;;;;;;;4.63;4.18;;;;;;;21.89;100.00;96148.44;5082345;28;20354;-78
2022/08/04 06:59:57;;;;;;;5.53;4.40;;;;;;;21.95;100.00;96149.16;5077397;28;20202;-78
2022/08/04 07:02:27;;;;;;;5.25;4.75;;;;;;;21.97;100.00;96136.75;5081733;28;20200;-79
2022/08/04 07:04:54;;;;;;;4.50;4.10;;;;;;;22.04;100.00;96144.56;5081510;28;20295;-77
2022/08/04 07:07:24;;;;;;;4.80;3.90;;;;;;;22.04;100.00;96150.88;5076002;28;20207;-78
2022/08/04 07:09:51;;;;;;;4.20;3.88;;;;;;;22.08;100.00;96157.41;5077697;28;20231;-78
2022/08/04 07:12:21;;;;;;;6.43;4.45;;;;;;;22.02;100.00;96144.91;5074450;28;20216;-77
2022/08/04 07:14:49;;;;;;;4.78;4.28;;;;;;;22.01;100.00;96151.50;5082736;28;20197;-76
2022/08/04 07:17:18;;;;;;;5.07;4.57;;;;;;;22.03;100.00;96156.72;5082061;28;20196;-77
2022/08/04 07:19:47;;;;;;;5.20;4.20;;;;;;;22.03;100.00;96154.75;5082881;28;20212;-81
2022/08/04 07:22:16;;;;;;;4.10;3.70;;;;;;;22.00;100.00;96149.06;5077900;28;20208;-80
2022/08/04 07:24:43;;;;;;;4.82;3.95;;;;;;;22.08;100.00;96151.09;5084305;28;20201;-84
2022/08/04 07:27:10;;;;;;;3.65;3.35;;;;;;;22.45;100.00;96141.75;5080427;28;20256;-85
2022/08/04 07:29:40;;;;;;;4.18;3.65;;;;;;;23.04;100.00;96150.78;5079918;28;20221;-86
2022/08/04 07:32:09;;;;;;;4.10;3.70;;;;;;;23.46;100.00;96146.66;5086458;28;20258;-86
2022/08/04 07:34:37;;;;;;;7.07;3.20;;;;;;;23.87;100.00;96152.66;5083747;28;20200;-84
2022/08/04 07:37:05;;;;;;;4.53;3.33;;;;;;;24.33;99.38;96145.84;5087433;28;20239;-86
2022/08/04 07:39:32;;;;;;;3.58;3.28;;;;;;;24.74;98.34;96140.66;5086599;28;20285;-85
2022/08/04 07:42:01;;;;;;;3.40;3.10;;;;;;;24.99;93.50;96136.25;5084221;28;20225;-86
2022/08/04 07:44:28;;;;;;;3.47;3.00;;;;;;;25.18;91.42;96141.41;5080209;28;20304;-86
2022/08/04 07:46:57;;;;;;;3.90;3.33;;;;;;;25.39;89.86;96142.34;5095473;28;20265;-87
2022/08/04 07:49:25;;;;;;;3.55;3.22;;;;;;;25.59;88.11;96146.38;5104757;27;20224;-86
2022/08/04 07:51:53;;;;;;;3.28;3.00;;;;;;;26.00;85.50;96140.16;5083770;28;20213;-88
2022/08/04 07:54:22;;;;;;;4.03;3.10;;;;;;;26.43;83.76;96137.16;5087796;28;20205;-87
2022/08/04 07:56:50;;;;;;;3.78;3.20;;;;;;;26.75;78.63;96139.16;5090319;28;20289;-85
2022/08/04 07:59:18;;;;;;;4.75;3.05;;;;;;;27.06;76.32;96144.28;5082557;28;20203;-85
2022/08/04 08:01:46;;;;;;;3.72;3.42;;;;;;;27.21;75.78;96156.72;5085227;28;20216;-86
2022/08/04 08:04:15;;;;;;;3.28;2.97;;;;;;;27.43;74.05;96147.97;5086014;28;20198;-87
2022/08/04 08:06:42;;;;;;;3.53;3.20;;;;;;;27.67;72.79;96136.16;5077853;28;20217;-86
2022/08/04 08:09:11;;;;;;;3.90;3.00;;;;;;;27.93;72.30;96155.25;5087765;28;20296;-86
2022/08/04 08:11:39;;;;;;;4.20;3.15;;;;;;;28.09;71.79;96147.84;5077929;28;20205;-86
2022/08/04 08:14:08;;;;;;;3.25;3.05;;;;;;;28.32;69.88;96139.88;5072268;28;20216;-86
2022/08/04 08:16:35;;;;;;;3.60;3.30;;;;;;;28.46;70.31;96147.84;5080278;28;20209;-87
2022/08/04 08:19:03;;;;;;;6.68;4.10;;;;;;;28.61;69.93;96147.09;5085869;28;20285;-86
2022/08/04 08:21:33;;;;;;;5.82;4.38;;;;;;;28.91;66.62;96145.69;5080047;28;20208;-86
2022/08/04 08:24:00;;;;;;;5.72;4.43;;;;;;;29.13;64.26;96141.53;5079901;28;20402;-83
2022/08/04 08:26:27;;;;;;;7.80;4.85;;;;;;;29.35;65.15;96149.31;5085293;28;20215;-84
2022/08/04 08:28:55;;;;;;;7.40;4.40;;;;;;;29.48;63.92;96130.59;5097138;28;20233;-83
2022/08/04 08:31:22;;;;;;;6.07;4.70;;;;;;;29.60;63.33;96144.41;5080998;28;20209;-84
2022/08/04 08:33:51;;;;;;;5.00;4.45;;;;;;;29.64;62.75;96142.53;5076308;28;20332;-84
2022/08/04 08:36:23;;;;;;;6.38;4.18;;;;;;;29.52;62.57;96142.59;5081088;28;20197;-83
2022/08/04 08:39:05;;;;;;;6.93;4.50;;;;;;;29.49;63.54;96136.97;5082977;28;20216;-83
2022/08/04 08:41:59;;;;;;;5.18;4.55;;;;;;;29.55;63.71;96141.09;5086566;28;20201;-84
2022/08/04 08:44:55;;;;;;;5.20;4.25;;;;;;;29.61;63.33;96145.22;5091738;28;20201;-83
2022/08/04 08:47:37;;;;;;;4.75;4.35;;;;;;;29.66;64.10;96143.00;5077693;28;20266;-83
2022/08/04 08:50:35;;;;;;;5.60;4.13;;;;;;;29.92;62.92;96156.38;5080358;28;20295;-84
2022/08/04 08:53:22;;;;;;;6.75;4.38;;;;;;;30.06;61.48;96151.19;5050589;28;20236;-83
2022/08/04 08:56:10;;;;;;;5.78;4.47;;;;;;;29.99;61.06;96145.44;5081953;28;20227;-83
2022/08/04 08:58:54;;;;;;;5.53;4.78;;;;;;;30.13;61.13;96144.16;5075299;28;20252;-83
2022/08/04 09:01:36;;;;;;;4.57;4.18;;;;;;;30.16;60.65;96154.59;5076145;28;20231;-83
2022/08/04 09:04:36;;;;;;;5.13;4.60;;;;;;;30.39;61.24;96141.63;5075676;28;20219;-83
2022/08/04 09:07:20;;;;;;;9.73;5.03;;;;;;;30.25;61.78;96146.84;5097026;28;20204;-83
2022/08/04 09:09:59;;;;;;;5.68;4.88;;;;;;;30.39;60.25;96148.00;5086751;28;20320;-83
2022/08/04 09:12:37;;;;;;;6.63;4.85;;;;;;;30.44;60.37;96149.72;5085118;28;20255;-83
2022/08/04 09:15:11;;;;;;;5.03;4.22;;;;;;;30.43;59.53;96139.72;5073341;28;20238;-83
2022/08/04 09:17:45;;;;;;;5.32;4.80;;;;;;;30.52;61.16;96140.38;5082150;28;20228;-83
2022/08/04 09:20:21;;;;;;;5.55;4.53;;;;;;;30.58;60.17;96144.47;5075890;28;20243;-84
2022/08/04 09:22:52;;;;;;;7.72;4.57;;;;;;;30.07;59.78;96147.25;5083885;28;20234;-83
2022/08/04 09:25:25;;;;;;;4.90;4.07;;;;;;;30.06;60.48;96147.59;5082732;28;20205;-83
2022/08/04 09:27:55;;;;;;;8.63;4.40;;;;;;;30.05;59.45;96149.56;5076011;28;20252;-83
2022/08/04 09:30:29;;;;;;;4.75;4.25;;;;;;;30.39;59.03;96149.97;5077010;28;20286;-83
2022/08/04 09:33:05;;;;;;;6.72;4.20;;;;;;;30.44;58.42;96144.13;5086997;28;20208;-84
2022/08/04 09:35:42;;;;;;;6.00;4.10;;;;;;;30.56;56.38;96146.81;5077947;28;20208;-83
2022/08/04 09:38:20;;;;;;;4.47;4.07;;;;;;;30.60;55.10;96131.00;5077823;28;20220;-83
2022/08/04 09:40:56;;;;;;;4.70;4.30;;;;;;;30.92;56.33;96144.81;5076278;28;20197;-81
2022/08/04 09:43:37;;;;;;;5.72;4.72;;;;;;;31.25;53.71;96136.75;5076950;28;20204;-81
2022/08/04 09:46:10;;;;;;;5.40;3.80;;;;;;;31.26;53.77;96140.34;5076790;28;20216;-81
2022/08/04 09:48:46;;;;;;;4.93;4.35;;;;;;;31.35;53.58;96138.94;5074985;28;20205;-82
2022/08/04 09:51:21;;;;;;;4.95;4.07;;;;;;;31.36;53.46;96134.97;5094492;27;20255;-81
2022/08/04 09:53:58;;;;;;;4.57;4.18;;;;;;;31.30;52.18;96128.09;5080891;28;20200;-82
2022/08/04 09:56:32;;;;;;;5.78;4.45;;;;;;;31.31;53.31;96131.66;5080476;28;20224;-83
2022/08/04 09:59:16;;;;;;;4.22;3.92;;;;;;;31.42;52.93;96129.91;5078746;28;20212;-81
2022/08/04 10:01:46;;;;;;;4.15;3.80;;;;;;;31.54;52.02;96121.38;5077966;28;20216;-80
2022/08/04 10:04:18;;;;;;;4.20;3.80;;;;;;;31.70;51.37;96115.69;5074881;28;20527;-81
2022/08/04 10:07:04;;;;;;;4.50;4.10;;;;;;;31.70;52.26;96121.28;5078399;28;20348;-77
2022/08/04 10:09:50;;;;;;;4.32;3.92;;;;;;;31.82;51.95;96118.28;5077030;28;20251;-77
2022/08/04 10:12:30;;;;;;;8.57;4.75;;;;;;;31.97;51.27;96111.78;5078083;28;20201;-80
2022/08/04 10:15:10;;;;;;;4.90;3.83;;;;;;;32.10;51.09;96102.00;5085129;28;20204;-81
2022/08/04 10:18:17;;;;;;;4.90;4.07;;;;;;;32.08;49.68;96106.34;5080814;28;20603;-78
2022/08/04 10:20:55;;;;;;;4.32;3.90;;;;;;;32.20;48.76;96115.38;5083976;28;20212;-78
2022/08/04 10:23:34;;;;;;;4.85;3.88;;;;;;;32.27;48.90;96106.28;5076052;28;20280;-78
2022/08/04 10:26:10;;;;;;;3.78;3.47;;;;;;;32.40;49.32;96096.50;5079808;28;20218;-78
2022/08/04 10:28:46;;;;;;;4.22;3.92;;;;;;;32.56;49.63;96107.50;5079716;28;20240;-79
2022/08/04 10:31:20;;;;;;;4.57;4.07;;;;;;;32.50;47.55;96098.63;5097887;28;20236;-79
2022/08/04 10:33:53;;;;;;;4.45;3.85;;;;;;;32.49;46.76;96088.66;5075289;28;20283;-78
2022/08/04 10:36:23;;;;;;;4.07;3.67;;;;;;;32.51;47.00;96089.06;5082889;28;20197;-78
2022/08/04 10:39:01;;;;;;;5.45;3.97;;;;;;;32.50;46.66;96087.44;5084060;28;20201;-79
2022/08/04 10:41:34;;;;;;;4.78;4.10;;;;;;;32.50;48.30;96086.63;5071268;28;20219;-79
2022/08/04 10:44:14;;;;;;;4.68;4.28;;;;;;;32.64;48.79;96081.25;5081716;28;20205;-78
2022/08/04 10:46:47;;;;;;;4.63;4.22;;;;;;;32.64;48.81;96076.47;5084453;28;20264;-79
2022/08/04 10:49:21;;;;;;;5.85;3.83;;;;;;;32.68;49.54;96076.50;5085765;28;20228;-79
2022/08/04 10:51:53;;;;;;;4.18;3.78;;;;;;;32.81;47.22;96083.50;5076630;28;20216;-79
2022/08/04 10:54:26;;;;;;;5.28;4.07;;;;;;;32.81;48.57;96072.31;5076675;28;20200;-80
2022/08/04 10:56:58;;;;;;;4.25;3.92;;;;;;;32.88;49.42;96080.78;5070868;28;20240;-79
2022/08/04 10:59:33;;;;;;;4.32;3.92;;;;;;;32.91;48.10;96070.84;5075331;28;20209;-80
2022/08/04 11:02:20;;;;;;;4.72;4.18;;;;;;;33.02;47.56;96071.75;5071053;28;20208;-79
2022/08/04 11:04:53;;;;;;;4.20;3.80;;;;;;;33.21;48.08;96076.38;5070129;28;20205;-79
2022/08/04 11:07:21;;;;;;;6.97;3.70;;;;;;;33.30;46.59;96068.50;5068641;28;20205;-79
2022/08/04 11:09:48;;;;;;;6.40;3.67;;;;;;;33.27;46.26;96058.88;5072748;28;20224;-79
2022/08/04 11:12:23;;;;;;;4.32;3.80;;;;;;;33.22;46.86;96056.44;5074506;28;20208;-80
2022/08/04 11:14:56;;;;;;;4.65;3.97;;;;;;;33.37;46.73;96052.59;5066750;28;20215;-79
2022/08/04 11:17:27;;;;;;;4.18;3.70;;;;;;;33.47;44.30;96051.09;5080825;28;20355;-80
2022/08/04 11:20:03;;;;;;;4.00;3.70;;;;;;;33.61;43.79;96056.81;5075405;28;20304;-81
2022/08/04 11:22:30;;;;;;;5.45;4.00;;;;;;;33.56;45.82;96043.19;5070151;28;20495;-79
2022/08/04 11:25:09;;;;;;;3.97;3.67;;;;;;;33.86;44.52;96050.66;5074448;28;20193;-78
2022/08/04 11:27:47;;;;;;;4.97;3.85;;;;;;;34.22;42.71;96046.91;5078527;28;20276;-79
2022/08/04 11:30:17;;;;;;;3.50;3.20;;;;;;;34.43;40.81;96052.69;5072616;28;20216;-79
2022/08/04 11:32:53;;;;;;;4.65;3.58;;;;;;;34.41;41.12;96043.06;5070623;28;20327;-79
2022/08/04 11:35:30;;;;;;;3.80;3.50;;;;;;;34.56;41.75;96041.91;5071503;28;20211;-80
2022/08/04 11:38:09;;;;;;;4.05;3.70;;;;;;;34.34;40.78;96049.44;5087740;28;20200;-80
2022/08/04 11:40:41;;;;;;;3.80;3.50;;;;;;;34.22;39.84;96040.50;5094049;28;20226;-79
2022/08/04 11:43:14;;;;;;;5.07;3.63;;;;;;;34.18;40.43;96046.09;5069746;28;20219;-80
2022/08/04 11:45:49;;;;;;;3.90;3.50;;;;;;;34.21;40.93;96044.50;5068345;28;20216;-80
2022/08/04 11:48:35;;;;;;;3.58;3.28;;;;;;;34.40;41.38;96036.63;5070750;28;20306;-79
2022/08/04 11:51:05;;;;;;;3.80;3.15;;;;;;;34.49;40.06;96037.09;5068696;28;20229;-80
2022/08/04 11:53:35;;;;;;;5.07;3.15;;;;;;;34.57;40.67;96037.94;5078096;28;20212;-79
2022/08/04 11:56:06;;;;;;;5.45;3.13;;;;;;;34.75;37.83;96038.03;5075865;28;20244;-80
2022/08/04 11:58:33;;;;;;;4.63;3.60;;;;;;;34.83;38.58;96039.66;5066994;28;20224;-79
2022/08/04 12:01:08;;;;;;;4.28;3.28;;;;;;;34.95;38.31;96039.31;5068511;28;20228;-79
2022/08/04 12:03:46;;;;;;;3.42;3.22;;;;;;;35.13;37.40;96033.78;5072844;28;20204;-80
2022/08/04 12:06:20;;;;;;;3.50;3.20;;;;;;;34.99;36.59;96037.31;5069390;28;20216;-80
2022/08/04 12:09:02;;;;;;;3.70;3.40;;;;;;;34.80;36.36;96034.84;5072101;28;20201;-79
2022/08/04 12:11:42;;;;;;;3.83;3.03;;;;;;;34.97;36.93;96031.31;5069435;28;20240;-79
2022/08/04 12:14:25;;;;;;;3.30;2.92;;;;;;;35.02;35.52;96039.34;5074857;28;20355;-79
2022/08/04 12:17:00;;;;;;;3.53;3.22;;;;;;;34.84;35.21;96027.25;5064305;28;20212;-81